Track Слепенков Матвей

Time Latitude Longitude Accuracy (66% radius in meters) Altitude (meters) Speed (km/hour) Bearing (degrees) Battery (%) GPS flag
07:35:38 57.203872 60.118453 0 0 0 0 1 delete
07:35:24 57.203877 60.118458 0 0 0 0 1 delete
07:35:19 57.203919 60.118363 0 0 0 0 1 delete
07:34:26 57.203959 60.118255 0 0 0 0 1 delete
07:34:18 57.204013 60.118151 0 0 0 0 1 delete
07:34:15 57.204075 60.118060 0 0 0 0 1 delete
07:34:12 57.204144 60.117956 0 0 0 0 1 delete
07:34:09 57.204210 60.117851 0 0 0 0 1 delete
07:34:06 57.204272 60.117720 0 0 0 0 1 delete
07:34:03 57.204339 60.117614 0 0 0 0 1 delete
07:34:00 57.204426 60.117499 0 0 0 0 1 delete
07:33:57 57.204533 60.117431 0 0 0 0 1 delete
07:33:54 57.204649 60.117406 0 0 0 0 1 delete
07:33:52 57.204735 60.117421 0 0 0 0 1 delete
07:33:49 57.204852 60.117456 0 0 0 0 1 delete
07:33:47 57.204939 60.117478 0 0 0 0 1 delete
07:33:44 57.205035 60.117510 0 0 0 0 1 delete
07:33:41 57.205130 60.117544 0 0 0 0 1 delete
07:33:35 57.205216 60.117602 0 0 0 0 1 delete
07:33:29 57.205233 60.117433 0 0 0 0 1 delete
07:33:25 57.205246 60.117281 0 0 0 0 1 delete
07:33:21 57.205256 60.117135 0 0 0 0 1 delete
07:33:15 57.205246 60.116972 0 0 0 0 1 delete
07:33:11 57.205239 60.116818 0 0 0 0 1 delete
07:33:06 57.205249 60.116664 0 0 0 0 1 delete
07:33:02 57.205248 60.116518 0 0 0 0 1 delete
07:32:54 57.205239 60.116395 0 0 0 0 1 delete
07:32:49 57.205252 60.116218 0 0 0 0 1 delete
07:32:44 57.205266 60.116043 0 0 0 0 1 delete
07:32:40 57.205291 60.115901 0 0 0 0 1 delete
07:32:36 57.205314 60.115717 0 0 0 0 1 delete
07:32:32 57.205330 60.115542 0 0 0 0 1 delete
07:32:24 57.205300 60.115371 0 0 0 0 1 delete
07:32:19 57.205263 60.115192 0 0 0 0 1 delete
07:32:15 57.205245 60.115037 0 0 0 0 1 delete
07:32:12 57.205220 60.114878 0 0 0 0 1 delete
07:32:08 57.205200 60.114687 0 0 0 0 1 delete
07:32:05 57.205184 60.114491 0 0 0 0 1 delete
07:32:02 57.205147 60.114345 0 0 0 0 1 delete
07:31:48 57.205075 60.114437 0 0 0 0 1 delete
07:31:42 57.205157 60.114560 0 0 0 0 1 delete
07:31:40 57.205182 60.114711 0 0 0 0 1 delete
07:31:37 57.205219 60.114905 0 0 0 0 1 delete
07:31:34 57.205249 60.115057 0 0 0 0 1 delete
07:31:30 57.205290 60.115223 0 0 0 0 1 delete
07:31:25 57.205400 60.115233 0 0 0 0 1 delete
07:31:22 57.205477 60.115155 0 0 0 0 1 delete
07:31:17 57.205584 60.115061 0 0 0 0 1 delete
07:31:13 57.205663 60.114905 0 0 0 0 1 delete
07:31:10 57.205727 60.114785 0 0 0 0 1 delete